sensor_id;sensor_type;location;lat;lon;timestamp;temperature;humidity
2389;DHT22;1205;47.984;7.668;2023-03-20T00:00:50;10.00;99.90
2389;DHT22;1205;47.984;7.668;2023-03-20T00:03:16;10.00;99.90
2389;DHT22;1205;47.984;7.668;2023-03-20T00:05:42;10.00;99.90
2389;DHT22;1205;47.984;7.668;2023-03-20T00:08:08;9.90;99.90
2389;DHT22;1205;47.984;7.668;2023-03-20T00:10:38;10.00;99.90
2389;DHT22;1205;47.984;7.668;2023-03-20T00:13:05;10.00;99.90
2389;DHT22;1205;47.984;7.668;2023-03-20T00:15:36;10.00;99.90
2389;DHT22;1205;47.984;7.668;2023-03-20T00:18:03;9.90;99.90
2389;DHT22;1205;47.984;7.668;2023-03-20T00:20:35;10.00;99.90
2389;DHT22;1205;47.984;7.668;2023-03-20T00:23:01;9.90;99.90
2389;DHT22;1205;47.984;7.668;2023-03-20T00:25:28;9.90;99.90
2389;DHT22;1205;47.984;7.668;2023-03-20T00:27:54;10.00;99.90
2389;DHT22;1205;47.984;7.668;2023-03-20T00:30:26;10.00;99.90
2389;DHT22;1205;47.984;7.668;2023-03-20T00:32:54;10.00;99.90
2389;DHT22;1205;47.984;7.668;2023-03-20T00:35:21;10.00;99.90
2389;DHT22;1205;47.984;7.668;2023-03-20T00:37:47;10.00;99.90
2389;DHT22;1205;47.984;7.668;2023-03-20T00:40:13;10.00;99.90
2389;DHT22;1205;47.984;7.668;2023-03-20T00:42:39;9.90;99.90
2389;DHT22;1205;47.984;7.668;2023-03-20T00:45:07;9.90;99.90
2389;DHT22;1205;47.984;7.668;2023-03-20T00:47:36;10.10;99.90
2389;DHT22;1205;47.984;7.668;2023-03-20T00:50:12;10.00;99.90
2389;DHT22;1205;47.984;7.668;2023-03-20T00:52:39;10.10;99.90
2389;DHT22;1205;47.984;7.668;2023-03-20T00:55:05;10.10;99.90
2389;DHT22;1205;47.984;7.668;2023-03-20T01:02:53;10.00;99.90
2389;DHT22;1205;47.984;7.668;2023-03-20T01:05:19;10.00;99.90
2389;DHT22;1205;47.984;7.668;2023-03-20T01:07:45;10.00;99.90
2389;DHT22;1205;47.984;7.668;2023-03-20T01:10:11;10.00;99.90
2389;DHT22;1205;47.984;7.668;2023-03-20T01:12:39;10.00;99.90
2389;DHT22;1205;47.984;7.668;2023-03-20T01:15:15;10.00;99.90
2389;DHT22;1205;47.984;7.668;2023-03-20T01:17:41;10.10;99.90
2389;DHT22;1205;47.984;7.668;2023-03-20T01:20:16;10.00;99.90
2389;DHT22;1205;47.984;7.668;2023-03-20T01:22:42;10.00;99.90
2389;DHT22;1205;47.984;7.668;2023-03-20T01:25:09;10.10;99.90
2389;DHT22;1205;47.984;7.668;2023-03-20T01:27:35;10.00;99.90
2389;DHT22;1205;47.984;7.668;2023-03-20T01:30:01;10.10;99.90
2389;DHT22;1205;47.984;7.668;2023-03-20T01:32:28;10.00;99.90
2389;DHT22;1205;47.984;7.668;2023-03-20T01:34:53;10.00;99.90
2389;DHT22;1205;47.984;7.668;2023-03-20T01:37:24;10.00;99.90
2389;DHT22;1205;47.984;7.668;2023-03-20T01:39:51;10.10;99.90
2389;DHT22;1205;47.984;7.668;2023-03-20T01:42:16;10.00;99.90
2389;DHT22;1205;47.984;7.668;2023-03-20T01:44:43;10.00;99.90
2389;DHT22;1205;47.984;7.668;2023-03-20T01:47:18;10.00;99.90
2389;DHT22;1205;47.984;7.668;2023-03-20T01:50:17;10.00;99.90
2389;DHT22;1205;47.984;7.668;2023-03-20T01:52:43;10.00;99.90
2389;DHT22;1205;47.984;7.668;2023-03-20T01:55:10;10.10;99.90
2389;DHT22;1205;47.984;7.668;2023-03-20T01:57:35;10.00;99.90
2389;DHT22;1205;47.984;7.668;2023-03-20T02:00:05;10.00;99.90
2389;DHT22;1205;47.984;7.668;2023-03-20T02:02:36;10.00;99.90
2389;DHT22;1205;47.984;7.668;2023-03-20T02:05:06;9.90;99.90
2389;DHT22;1205;47.984;7.668;2023-03-20T02:07:34;10.00;99.90
2389;DHT22;1205;47.984;7.668;2023-03-20T02:10:02;10.00;99.90
2389;DHT22;1205;47.984;7.668;2023-03-20T02:12:28;10.00;99.90
2389;DHT22;1205;47.984;7.668;2023-03-20T02:14:54;10.00;99.90
2389;DHT22;1205;47.984;7.668;2023-03-20T02:17:20;9.90;99.90
2389;DHT22;1205;47.984;7.668;2023-03-20T02:20:13;9.90;99.90
2389;DHT22;1205;47.984;7.668;2023-03-20T02:36:44;9.80;99.90
2389;DHT22;1205;47.984;7.668;2023-03-20T02:42:09;9.50;99.90
2389;DHT22;1205;47.984;7.668;2023-03-20T02:47:55;9.40;99.90
2389;DHT22;1205;47.984;7.668;2023-03-20T02:50:32;9.40;99.90
2389;DHT22;1205;47.984;7.668;2023-03-20T02:53:20;9.40;99.90
2389;DHT22;1205;47.984;7.668;2023-03-20T02:58:33;9.20;99.90
2389;DHT22;1205;47.984;7.668;2023-03-20T03:01:06;9.10;99.90
2389;DHT22;1205;47.984;7.668;2023-03-20T03:03:44;9.10;99.90
2389;DHT22;1205;47.984;7.668;2023-03-20T03:06:19;9.10;99.90
2389;DHT22;1205;47.984;7.668;2023-03-20T03:08:53;9.20;99.90
2389;DHT22;1205;47.984;7.668;2023-03-20T03:11:20;9.20;99.90
2389;DHT22;1205;47.984;7.668;2023-03-20T03:13:52;9.30;99.90
2389;DHT22;1205;47.984;7.668;2023-03-20T03:16:26;9.30;99.90
2389;DHT22;1205;47.984;7.668;2023-03-20T03:19:15;9.40;99.90
2389;DHT22;1205;47.984;7.668;2023-03-20T03:21:45;9.30;99.90
2389;DHT22;1205;47.984;7.668;2023-03-20T03:24:33;9.40;99.90
2389;DHT22;1205;47.984;7.668;2023-03-20T03:27:03;9.40;99.90
2389;DHT22;1205;47.984;7.668;2023-03-20T03:29:33;9.50;99.90
2389;DHT22;1205;47.984;7.668;2023-03-20T03:32:02;9.50;99.90
2389;DHT22;1205;47.984;7.668;2023-03-20T03:34:30;9.40;99.90
2389;DHT22;1205;47.984;7.668;2023-03-20T03:37:03;9.20;99.90
2389;DHT22;1205;47.984;7.668;2023-03-20T03:39:34;9.30;99.90
2389;DHT22;1205;47.984;7.668;2023-03-20T03:45:11;9.30;99.90
2389;DHT22;1205;47.984;7.668;2023-03-20T03:47:43;9.20;99.90
2389;DHT22;1205;47.984;7.668;2023-03-20T03:50:17;9.20;99.90
2389;DHT22;1205;47.984;7.668;2023-03-20T03:52:46;9.30;99.90
2389;DHT22;1205;47.984;7.668;2023-03-20T03:55:19;9.30;99.90
2389;DHT22;1205;47.984;7.668;2023-03-20T03:57:56;9.30;99.90
2389;DHT22;1205;47.984;7.668;2023-03-20T04:00:24;9.30;99.90
2389;DHT22;1205;47.984;7.668;2023-03-20T04:02:55;9.30;99.90
2389;DHT22;1205;47.984;7.668;2023-03-20T04:05:21;9.30;99.90
2389;DHT22;1205;47.984;7.668;2023-03-20T04:07:53;9.30;99.90
2389;DHT22;1205;47.984;7.668;2023-03-20T04:10:19;9.30;99.90
2389;DHT22;1205;47.984;7.668;2023-03-20T04:12:45;9.30;99.90
2389;DHT22;1205;47.984;7.668;2023-03-20T04:15:12;9.30;99.90
2389;DHT22;1205;47.984;7.668;2023-03-20T04:17:38;9.30;99.90
2389;DHT22;1205;47.984;7.668;2023-03-20T04:20:04;9.30;99.90
2389;DHT22;1205;47.984;7.668;2023-03-20T04:22:30;9.30;99.90
2389;DHT22;1205;47.984;7.668;2023-03-20T04:24:59;9.30;99.90
2389;DHT22;1205;47.984;7.668;2023-03-20T04:27:26;9.30;99.90
2389;DHT22;1205;47.984;7.668;2023-03-20T04:29:51;9.20;99.90
2389;DHT22;1205;47.984;7.668;2023-03-20T04:32:17;9.30;99.90
2389;DHT22;1205;47.984;7.668;2023-03-20T04:34:42;9.30;99.90
2389;DHT22;1205;47.984;7.668;2023-03-20T04:37:08;9.30;99.90
2389;DHT22;1205;47.984;7.668;2023-03-20T04:39:34;9.30;99.90
2389;DHT22;1205;47.984;7.668;2023-03-20T04:42:01;9.30;99.90
2389;DHT22;1205;47.984;7.668;2023-03-20T04:44:27;9.30;99.90
2389;DHT22;1205;47.984;7.668;2023-03-20T04:46:52;9.20;99.90
2389;DHT22;1205;47.984;7.668;2023-03-20T04:49:18;9.30;99.90
2389;DHT22;1205;47.984;7.668;2023-03-20T04:51:43;9.30;99.90
2389;DHT22;1205;47.984;7.668;2023-03-20T04:54:09;9.30;99.90
2389;DHT22;1205;47.984;7.668;2023-03-20T04:56:35;9.30;99.90
2389;DHT22;1205;47.984;7.668;2023-03-20T04:59:00;9.30;99.90
2389;DHT22;1205;47.984;7.668;2023-03-20T05:01:26;9.30;99.90
2389;DHT22;1205;47.984;7.668;2023-03-20T05:03:51;9.30;99.90
2389;DHT22;1205;47.984;7.668;2023-03-20T05:06:17;9.30;99.90
2389;DHT22;1205;47.984;7.668;2023-03-20T05:08:42;9.30;99.90
2389;DHT22;1205;47.984;7.668;2023-03-20T05:11:08;9.30;99.90
2389;DHT22;1205;47.984;7.668;2023-03-20T05:13:34;9.40;99.90
2389;DHT22;1205;47.984;7.668;2023-03-20T05:16:00;9.30;99.90
2389;DHT22;1205;47.984;7.668;2023-03-20T05:18:25;9.30;99.90
2389;DHT22;1205;47.984;7.668;2023-03-20T05:20:51;9.30;99.90
2389;DHT22;1205;47.984;7.668;2023-03-20T05:23:16;9.30;99.90
2389;DHT22;1205;47.984;7.668;2023-03-20T05:25:43;10.20;99.90
2389;DHT22;1205;47.984;7.668;2023-03-20T05:28:09;10.80;99.90
2389;DHT22;1205;47.984;7.668;2023-03-20T05:30:34;10.30;99.90
2389;DHT22;1205;47.984;7.668;2023-03-20T05:33:00;10.00;99.90
2389;DHT22;1205;47.984;7.668;2023-03-20T05:35:25;9.90;99.90
2389;DHT22;1205;47.984;7.668;2023-03-20T05:37:51;9.80;99.90
2389;DHT22;1205;47.984;7.668;2023-03-20T05:40:16;9.70;99.90
2389;DHT22;1205;47.984;7.668;2023-03-20T05:42:44;9.60;99.90
2389;DHT22;1205;47.984;7.668;2023-03-20T05:45:10;9.60;99.90
2389;DHT22;1205;47.984;7.668;2023-03-20T05:47:35;9.50;99.90
2389;DHT22;1205;47.984;7.668;2023-03-20T05:50:02;9.50;99.90
2389;DHT22;1205;47.984;7.668;2023-03-20T05:52:27;9.50;99.90
2389;DHT22;1205;47.984;7.668;2023-03-20T05:54:53;9.50;99.90
2389;DHT22;1205;47.984;7.668;2023-03-20T05:57:18;9.50;99.90
2389;DHT22;1205;47.984;7.668;2023-03-20T05:59:44;9.50;99.90
2389;DHT22;1205;47.984;7.668;2023-03-20T06:02:10;9.50;99.90
2389;DHT22;1205;47.984;7.668;2023-03-20T06:04:36;9.50;99.90
2389;DHT22;1205;47.984;7.668;2023-03-20T06:07:02;9.60;99.90
2389;DHT22;1205;47.984;7.668;2023-03-20T06:09:28;9.60;99.90
2389;DHT22;1205;47.984;7.668;2023-03-20T06:11:54;9.60;99.90
2389;DHT22;1205;47.984;7.668;2023-03-20T06:14:20;9.60;99.90
2389;DHT22;1205;47.984;7.668;2023-03-20T06:16:46;9.60;99.90
2389;DHT22;1205;47.984;7.668;2023-03-20T06:19:12;9.60;99.90
2389;DHT22;1205;47.984;7.668;2023-03-20T06:21:37;9.70;99.90
2389;DHT22;1205;47.984;7.668;2023-03-20T06:24:03;9.70;99.90
2389;DHT22;1205;47.984;7.668;2023-03-20T06:26:29;9.70;99.90
2389;DHT22;1205;47.984;7.668;2023-03-20T06:28:54;9.70;99.90
2389;DHT22;1205;47.984;7.668;2023-03-20T06:31:20;9.80;99.90
2389;DHT22;1205;47.984;7.668;2023-03-20T06:33:46;9.80;99.90
2389;DHT22;1205;47.984;7.668;2023-03-20T06:36:11;9.90;99.90
2389;DHT22;1205;47.984;7.668;2023-03-20T06:38:37;9.90;99.90
2389;DHT22;1205;47.984;7.668;2023-03-20T06:41:03;10.00;99.90
2389;DHT22;1205;47.984;7.668;2023-03-20T06:43:28;10.10;99.90
2389;DHT22;1205;47.984;7.668;2023-03-20T06:45:54;10.30;99.90
2389;DHT22;1205;47.984;7.668;2023-03-20T06:48:20;10.30;99.90
2389;DHT22;1205;47.984;7.668;2023-03-20T06:50:49;10.40;99.90
2389;DHT22;1205;47.984;7.668;2023-03-20T06:53:14;10.50;99.90
2389;DHT22;1205;47.984;7.668;2023-03-20T06:55:50;10.60;99.90
2389;DHT22;1205;47.984;7.668;2023-03-20T06:58:16;10.60;99.90
2389;DHT22;1205;47.984;7.668;2023-03-20T07:00:42;10.60;99.90
2389;DHT22;1205;47.984;7.668;2023-03-20T07:03:08;10.70;99.90
2389;DHT22;1205;47.984;7.668;2023-03-20T07:05:34;10.50;99.90
2389;DHT22;1205;47.984;7.668;2023-03-20T07:08:00;10.60;99.90
2389;DHT22;1205;47.984;7.668;2023-03-20T07:10:26;10.60;99.90
2389;DHT22;1205;47.984;7.668;2023-03-20T07:12:52;10.60;99.90
2389;DHT22;1205;47.984;7.668;2023-03-20T07:15:17;10.70;99.90
2389;DHT22;1205;47.984;7.668;2023-03-20T07:17:43;10.60;99.90
2389;DHT22;1205;47.984;7.668;2023-03-20T07:20:09;10.70;99.90
2389;DHT22;1205;47.984;7.668;2023-03-20T07:22:35;10.80;99.90
2389;DHT22;1205;47.984;7.668;2023-03-20T07:25:02;10.70;99.90
2389;DHT22;1205;47.984;7.668;2023-03-20T07:27:27;10.60;99.90
2389;DHT22;1205;47.984;7.668;2023-03-20T07:29:53;10.50;99.90
2389;DHT22;1205;47.984;7.668;2023-03-20T07:32:19;10.40;99.90
2389;DHT22;1205;47.984;7.668;2023-03-20T07:34:45;10.50;99.90
2389;DHT22;1205;47.984;7.668;2023-03-20T07:37:12;10.60;99.90
2389;DHT22;1205;47.984;7.668;2023-03-20T07:39:37;10.70;99.90
2389;DHT22;1205;47.984;7.668;2023-03-20T07:42:03;10.70;99.90
2389;DHT22;1205;47.984;7.668;2023-03-20T07:44:28;10.70;99.90
2389;DHT22;1205;47.984;7.668;2023-03-20T07:46:54;10.60;99.90
2389;DHT22;1205;47.984;7.668;2023-03-20T07:49:20;10.60;99.90
2389;DHT22;1205;47.984;7.668;2023-03-20T07:51:47;10.70;99.90
2389;DHT22;1205;47.984;7.668;2023-03-20T07:54:13;10.60;99.90
2389;DHT22;1205;47.984;7.668;2023-03-20T07:56:39;10.80;99.90
2389;DHT22;1205;47.984;7.668;2023-03-20T07:59:05;11.00;99.90
2389;DHT22;1205;47.984;7.668;2023-03-20T08:01:31;11.10;99.90
2389;DHT22;1205;47.984;7.668;2023-03-20T08:03:56;11.20;99.90
2389;DHT22;1205;47.984;7.668;2023-03-20T08:06:22;11.30;99.90
2389;DHT22;1205;47.984;7.668;2023-03-20T08:08:48;11.30;99.90
2389;DHT22;1205;47.984;7.668;2023-03-20T08:11:17;11.40;99.90
2389;DHT22;1205;47.984;7.668;2023-03-20T08:13:43;11.40;99.90
2389;DHT22;1205;47.984;7.668;2023-03-20T08:16:09;11.60;99.90
2389;DHT22;1205;47.984;7.668;2023-03-20T08:18:35;11.70;99.90
2389;DHT22;1205;47.984;7.668;2023-03-20T08:21:01;11.80;99.90
2389;DHT22;1205;47.984;7.668;2023-03-20T08:23:26;11.80;99.90
2389;DHT22;1205;47.984;7.668;2023-03-20T08:25:52;12.00;99.90
2389;DHT22;1205;47.984;7.668;2023-03-20T08:28:19;11.90;99.90
2389;DHT22;1205;47.984;7.668;2023-03-20T08:30:45;12.10;99.90
2389;DHT22;1205;47.984;7.668;2023-03-20T08:33:12;11.90;99.90
2389;DHT22;1205;47.984;7.668;2023-03-20T08:35:38;12.00;99.90
2389;DHT22;1205;47.984;7.668;2023-03-20T08:38:04;12.10;99.90
2389;DHT22;1205;47.984;7.668;2023-03-20T08:40:30;12.10;99.90
2389;DHT22;1205;47.984;7.668;2023-03-20T08:42:56;12.00;99.90
2389;DHT22;1205;47.984;7.668;2023-03-20T08:45:21;12.10;99.90
2389;DHT22;1205;47.984;7.668;2023-03-20T08:47:50;12.20;99.90
2389;DHT22;1205;47.984;7.668;2023-03-20T08:50:16;12.30;99.90
2389;DHT22;1205;47.984;7.668;2023-03-20T08:52:42;12.40;99.90
2389;DHT22;1205;47.984;7.668;2023-03-20T08:55:12;12.40;99.90
2389;DHT22;1205;47.984;7.668;2023-03-20T08:57:39;12.40;99.90
2389;DHT22;1205;47.984;7.668;2023-03-20T09:00:06;12.60;99.90
2389;DHT22;1205;47.984;7.668;2023-03-20T09:02:33;12.70;99.90
2389;DHT22;1205;47.984;7.668;2023-03-20T09:04:59;12.80;99.90
2389;DHT22;1205;47.984;7.668;2023-03-20T09:07:24;12.70;99.90
2389;DHT22;1205;47.984;7.668;2023-03-20T09:09:50;12.80;99.90
2389;DHT22;1205;47.984;7.668;2023-03-20T09:12:16;13.00;99.90
2389;DHT22;1205;47.984;7.668;2023-03-20T09:14:41;12.80;99.90
2389;DHT22;1205;47.984;7.668;2023-03-20T09:17:07;12.80;99.90
2389;DHT22;1205;47.984;7.668;2023-03-20T09:19:33;12.40;99.90
2389;DHT22;1205;47.984;7.668;2023-03-20T09:21:59;12.20;99.90
2389;DHT22;1205;47.984;7.668;2023-03-20T09:24:25;12.50;99.90
2389;DHT22;1205;47.984;7.668;2023-03-20T09:26:51;12.60;99.90
2389;DHT22;1205;47.984;7.668;2023-03-20T09:29:17;12.50;99.90
2389;DHT22;1205;47.984;7.668;2023-03-20T09:31:42;12.80;99.90
2389;DHT22;1205;47.984;7.668;2023-03-20T09:34:08;12.70;99.90
2389;DHT22;1205;47.984;7.668;2023-03-20T09:36:34;13.10;99.90
2389;DHT22;1205;47.984;7.668;2023-03-20T09:39:00;13.10;99.90
2389;DHT22;1205;47.984;7.668;2023-03-20T09:41:26;13.20;99.90
2389;DHT22;1205;47.984;7.668;2023-03-20T09:57:02;13.80;99.90
2389;DHT22;1205;47.984;7.668;2023-03-20T09:59:29;14.10;99.90
2389;DHT22;1205;47.984;7.668;2023-03-20T10:02:09;13.90;99.90
2389;DHT22;1205;47.984;7.668;2023-03-20T10:04:38;14.20;99.90
2389;DHT22;1205;47.984;7.668;2023-03-20T10:07:05;14.50;99.90
2389;DHT22;1205;47.984;7.668;2023-03-20T10:09:31;14.30;99.90
2389;DHT22;1205;47.984;7.668;2023-03-20T10:12:32;14.20;99.90
2389;DHT22;1205;47.984;7.668;2023-03-20T10:18:25;14.30;99.90
2389;DHT22;1205;47.984;7.668;2023-03-20T10:20:58;15.10;99.90
2389;DHT22;1205;47.984;7.668;2023-03-20T10:23:32;14.90;99.90
2389;DHT22;1205;47.984;7.668;2023-03-20T10:26:04;14.70;99.90
2389;DHT22;1205;47.984;7.668;2023-03-20T10:37:00;14.20;99.90
2389;DHT22;1205;47.984;7.668;2023-03-20T10:42:17;14.40;99.90
2389;DHT22;1205;47.984;7.668;2023-03-20T10:44:55;14.60;99.90
2389;DHT22;1205;47.984;7.668;2023-03-20T10:47:24;14.50;99.90
2389;DHT22;1205;47.984;7.668;2023-03-20T10:49:55;14.30;99.90
2389;DHT22;1205;47.984;7.668;2023-03-20T10:52:27;14.40;99.90
2389;DHT22;1205;47.984;7.668;2023-03-20T10:55:20;15.00;99.90
2389;DHT22;1205;47.984;7.668;2023-03-20T10:57:53;14.80;99.90
2389;DHT22;1205;47.984;7.668;2023-03-20T11:00:24;15.10;99.90
2389;DHT22;1205;47.984;7.668;2023-03-20T11:02:50;15.30;99.90
2389;DHT22;1205;47.984;7.668;2023-03-20T11:07:50;15.40;99.90
2389;DHT22;1205;47.984;7.668;2023-03-20T11:10:26;15.50;99.90
2389;DHT22;1205;47.984;7.668;2023-03-20T11:12:51;15.20;98.60
2389;DHT22;1205;47.984;7.668;2023-03-20T11:15:24;15.70;99.90
2389;DHT22;1205;47.984;7.668;2023-03-20T11:18:02;15.70;99.90
2389;DHT22;1205;47.984;7.668;2023-03-20T11:20:37;16.20;99.80
2389;DHT22;1205;47.984;7.668;2023-03-20T11:23:05;16.60;99.30
2389;DHT22;1205;47.984;7.668;2023-03-20T11:25:37;16.50;97.30
2389;DHT22;1205;47.984;7.668;2023-03-20T11:28:24;16.00;96.10
2389;DHT22;1205;47.984;7.668;2023-03-20T11:30:57;15.70;95.30
2389;DHT22;1205;47.984;7.668;2023-03-20T11:33:26;15.30;94.10
2389;DHT22;1205;47.984;7.668;2023-03-20T11:35:55;15.60;95.30
2389;DHT22;1205;47.984;7.668;2023-03-20T11:38:22;15.70;95.10
2389;DHT22;1205;47.984;7.668;2023-03-20T11:40:48;15.60;95.50
2389;DHT22;1205;47.984;7.668;2023-03-20T11:43:21;15.70;95.30
2389;DHT22;1205;47.984;7.668;2023-03-20T11:45:58;15.80;95.60
2389;DHT22;1205;47.984;7.668;2023-03-20T11:48:38;15.70;95.20
2389;DHT22;1205;47.984;7.668;2023-03-20T11:51:05;15.70;95.20
2389;DHT22;1205;47.984;7.668;2023-03-20T11:54:00;15.30;96.00
2389;DHT22;1205;47.984;7.668;2023-03-20T11:56:27;15.60;95.70
2389;DHT22;1205;47.984;7.668;2023-03-20T11:59:06;15.90;96.00
2389;DHT22;1205;47.984;7.668;2023-03-20T12:01:39;15.90;96.10
2389;DHT22;1205;47.984;7.668;2023-03-20T12:04:15;16.20;96.10
2389;DHT22;1205;47.984;7.668;2023-03-20T12:06:51;16.40;95.20
2389;DHT22;1205;47.984;7.668;2023-03-20T12:12:04;17.10;97.20
2389;DHT22;1205;47.984;7.668;2023-03-20T12:14:39;17.30;95.90
2389;DHT22;1205;47.984;7.668;2023-03-20T12:17:31;17.10;94.40
2389;DHT22;1205;47.984;7.668;2023-03-20T12:20:01;16.70;93.20
2389;DHT22;1205;47.984;7.668;2023-03-20T12:22:33;16.60;94.50
2389;DHT22;1205;47.984;7.668;2023-03-20T12:33:33;16.20;94.40
2389;DHT22;1205;47.984;7.668;2023-03-20T12:36:03;16.20;94.40
2389;DHT22;1205;47.984;7.668;2023-03-20T12:38:32;16.30;94.10
2389;DHT22;1205;47.984;7.668;2023-03-20T12:41:12;16.10;94.40
2389;DHT22;1205;47.984;7.668;2023-03-20T12:52:08;16.60;94.30
2389;DHT22;1205;47.984;7.668;2023-03-20T13:00:03;16.60;94.20
2389;DHT22;1205;47.984;7.668;2023-03-20T13:05:30;16.90;94.70
2389;DHT22;1205;47.984;7.668;2023-03-20T13:11:04;16.80;93.10
2389;DHT22;1205;47.984;7.668;2023-03-20T13:13:46;16.20;91.70
2389;DHT22;1205;47.984;7.668;2023-03-20T13:16:29;16.50;93.10
2389;DHT22;1205;47.984;7.668;2023-03-20T13:19:23;16.30;92.50
2389;DHT22;1205;47.984;7.668;2023-03-20T13:22:10;16.20;93.30
2389;DHT22;1205;47.984;7.668;2023-03-20T13:24:49;16.40;93.10
2389;DHT22;1205;47.984;7.668;2023-03-20T13:27:39;16.60;92.90
2389;DHT22;1205;47.984;7.668;2023-03-20T13:38:19;16.00;93.50
2389;DHT22;1205;47.984;7.668;2023-03-20T13:40:46;16.00;93.80
2389;DHT22;1205;47.984;7.668;2023-03-20T13:43:25;16.00;93.50
2389;DHT22;1205;47.984;7.668;2023-03-20T13:46:05;16.00;93.00
2389;DHT22;1205;47.984;7.668;2023-03-20T13:48:38;16.00;93.00
2389;DHT22;1205;47.984;7.668;2023-03-20T13:59:14;16.00;92.70
2389;DHT22;1205;47.984;7.668;2023-03-20T14:04:26;16.10;92.50
2389;DHT22;1205;47.984;7.668;2023-03-20T14:06:57;16.10;92.60
2389;DHT22;1205;47.984;7.668;2023-03-20T14:09:34;16.20;92.80
2389;DHT22;1205;47.984;7.668;2023-03-20T14:12:06;16.10;92.10
2389;DHT22;1205;47.984;7.668;2023-03-20T14:14:42;16.20;92.40
2389;DHT22;1205;47.984;7.668;2023-03-20T14:19:39;16.20;92.30
2389;DHT22;1205;47.984;7.668;2023-03-20T14:22:05;16.20;91.90
2389;DHT22;1205;47.984;7.668;2023-03-20T14:24:35;16.20;92.40
2389;DHT22;1205;47.984;7.668;2023-03-20T14:27:02;16.10;92.00
2389;DHT22;1205;47.984;7.668;2023-03-20T14:32:03;16.30;92.20
2389;DHT22;1205;47.984;7.668;2023-03-20T14:34:44;16.40;92.10
2389;DHT22;1205;47.984;7.668;2023-03-20T14:37:32;16.20;91.00
2389;DHT22;1205;47.984;7.668;2023-03-20T14:40:15;16.40;91.70
2389;DHT22;1205;47.984;7.668;2023-03-20T14:43:11;16.50;91.60
2389;DHT22;1205;47.984;7.668;2023-03-20T14:45:36;16.50;91.70
2389;DHT22;1205;47.984;7.668;2023-03-20T14:51:16;16.30;92.00
2389;DHT22;1205;47.984;7.668;2023-03-20T14:54:23;16.30;91.60
2389;DHT22;1205;47.984;7.668;2023-03-20T14:56:40;16.30;92.20
2389;DHT22;1205;47.984;7.668;2023-03-20T14:59:09;16.30;91.40
2389;DHT22;1205;47.984;7.668;2023-03-20T15:06:50;16.50;91.50
2389;DHT22;1205;47.984;7.668;2023-03-20T15:09:19;16.50;91.70
2389;DHT22;1205;47.984;7.668;2023-03-20T15:11:47;16.60;91.50
2389;DHT22;1205;47.984;7.668;2023-03-20T15:14:23;16.50;91.30
2389;DHT22;1205;47.984;7.668;2023-03-20T15:16:57;16.60;91.70
2389;DHT22;1205;47.984;7.668;2023-03-20T15:19:23;16.60;91.60
2389;DHT22;1205;47.984;7.668;2023-03-20T15:21:49;16.40;90.60
2389;DHT22;1205;47.984;7.668;2023-03-20T15:24:26;16.40;91.40
2389;DHT22;1205;47.984;7.668;2023-03-20T15:26:54;16.30;90.90
2389;DHT22;1205;47.984;7.668;2023-03-20T15:29:21;16.30;91.40
2389;DHT22;1205;47.984;7.668;2023-03-20T15:31:50;16.40;91.60
2389;DHT22;1205;47.984;7.668;2023-03-20T15:34:21;16.40;91.50
2389;DHT22;1205;47.984;7.668;2023-03-20T15:36:48;16.40;91.70
2389;DHT22;1205;47.984;7.668;2023-03-20T15:39:17;16.50;91.30
2389;DHT22;1205;47.984;7.668;2023-03-20T15:41:46;16.40;90.70
2389;DHT22;1205;47.984;7.668;2023-03-20T15:46:49;16.40;91.10
2389;DHT22;1205;47.984;7.668;2023-03-20T15:49:18;16.50;90.90
2389;DHT22;1205;47.984;7.668;2023-03-20T15:51:45;16.60;91.10
2389;DHT22;1205;47.984;7.668;2023-03-20T15:54:13;16.60;90.50
2389;DHT22;1205;47.984;7.668;2023-03-20T15:56:39;16.50;90.70
2389;DHT22;1205;47.984;7.668;2023-03-20T15:59:12;16.40;91.50
2389;DHT22;1205;47.984;7.668;2023-03-20T16:01:39;16.40;91.30
2389;DHT22;1205;47.984;7.668;2023-03-20T16:04:04;16.40;91.00
2389;DHT22;1205;47.984;7.668;2023-03-20T16:06:30;16.50;91.40
2389;DHT22;1205;47.984;7.668;2023-03-20T16:08:58;16.40;91.40
2389;DHT22;1205;47.984;7.668;2023-03-20T16:11:32;16.30;91.40
2389;DHT22;1205;47.984;7.668;2023-03-20T16:13:59;16.20;91.30
2389;DHT22;1205;47.984;7.668;2023-03-20T16:16:24;16.10;91.30
2389;DHT22;1205;47.984;7.668;2023-03-20T16:18:50;16.10;91.90
2389;DHT22;1205;47.984;7.668;2023-03-20T16:21:27;16.00;92.00
2389;DHT22;1205;47.984;7.668;2023-03-20T16:23:56;15.90;92.00
2389;DHT22;1205;47.984;7.668;2023-03-20T16:26:23;15.90;92.50
2389;DHT22;1205;47.984;7.668;2023-03-20T16:28:55;15.90;92.60
2389;DHT22;1205;47.984;7.668;2023-03-20T16:31:25;15.80;92.90
2389;DHT22;1205;47.984;7.668;2023-03-20T16:33:52;15.70;92.90
2389;DHT22;1205;47.984;7.668;2023-03-20T16:36:20;15.50;92.80
2389;DHT22;1205;47.984;7.668;2023-03-20T16:41:40;15.30;92.90
2389;DHT22;1205;47.984;7.668;2023-03-20T16:44:14;15.20;93.20
2389;DHT22;1205;47.984;7.668;2023-03-20T16:52:01;14.80;93.70
2389;DHT22;1205;47.984;7.668;2023-03-20T16:54:29;14.80;93.90
2389;DHT22;1205;47.984;7.668;2023-03-20T16:56:58;14.70;94.20
2389;DHT22;1205;47.984;7.668;2023-03-20T16:59:25;14.60;94.30
2389;DHT22;1205;47.984;7.668;2023-03-20T17:01:51;14.60;94.10
2389;DHT22;1205;47.984;7.668;2023-03-20T17:04:38;14.60;94.40
2389;DHT22;1205;47.984;7.668;2023-03-20T17:07:08;14.60;94.00
2389;DHT22;1205;47.984;7.668;2023-03-20T17:10:00;14.60;94.00
2389;DHT22;1205;47.984;7.668;2023-03-20T17:12:38;14.50;94.30
2389;DHT22;1205;47.984;7.668;2023-03-20T17:15:05;14.40;94.80
2389;DHT22;1205;47.984;7.668;2023-03-20T17:17:31;14.30;95.10
2389;DHT22;1205;47.984;7.668;2023-03-20T17:19:57;14.30;95.60
2389;DHT22;1205;47.984;7.668;2023-03-20T17:22:25;14.10;95.50
2389;DHT22;1205;47.984;7.668;2023-03-20T17:24:53;14.10;95.80
2389;DHT22;1205;47.984;7.668;2023-03-20T17:27:19;14.00;95.60
2389;DHT22;1205;47.984;7.668;2023-03-20T17:29:46;13.90;95.70
2389;DHT22;1205;47.984;7.668;2023-03-20T17:32:15;13.80;95.80
2389;DHT22;1205;47.984;7.668;2023-03-20T17:34:41;13.70;96.40
2389;DHT22;1205;47.984;7.668;2023-03-20T17:37:14;13.60;96.40
2389;DHT22;1205;47.984;7.668;2023-03-20T17:39:41;13.50;96.60
2389;DHT22;1205;47.984;7.668;2023-03-20T17:42:26;13.50;96.90
2389;DHT22;1205;47.984;7.668;2023-03-20T17:44:59;13.40;97.00
2389;DHT22;1205;47.984;7.668;2023-03-20T17:47:28;13.40;96.90
2389;DHT22;1205;47.984;7.668;2023-03-20T17:49:53;13.40;97.20
2389;DHT22;1205;47.984;7.668;2023-03-20T17:52:23;13.30;97.50
2389;DHT22;1205;47.984;7.668;2023-03-20T17:54:49;13.30;97.20
2389;DHT22;1205;47.984;7.668;2023-03-20T17:57:35;13.40;97.00
2389;DHT22;1205;47.984;7.668;2023-03-20T18:00:06;13.40;96.90
2389;DHT22;1205;47.984;7.668;2023-03-20T18:02:33;13.40;97.30
2389;DHT22;1205;47.984;7.668;2023-03-20T18:04:58;13.30;97.60
2389;DHT22;1205;47.984;7.668;2023-03-20T18:07:24;13.20;97.60
2389;DHT22;1205;47.984;7.668;2023-03-20T18:09:49;13.00;98.10
2389;DHT22;1205;47.984;7.668;2023-03-20T18:12:16;13.00;97.80
2389;DHT22;1205;47.984;7.668;2023-03-20T18:14:43;13.00;98.00
2389;DHT22;1205;47.984;7.668;2023-03-20T18:17:14;12.90;98.30
2389;DHT22;1205;47.984;7.668;2023-03-20T18:19:40;12.80;98.30
2389;DHT22;1205;47.984;7.668;2023-03-20T18:22:06;12.80;98.40
2389;DHT22;1205;47.984;7.668;2023-03-20T18:24:32;12.60;98.80
2389;DHT22;1205;47.984;7.668;2023-03-20T18:26:58;12.50;99.10
2389;DHT22;1205;47.984;7.668;2023-03-20T18:29:24;12.40;99.80
2389;DHT22;1205;47.984;7.668;2023-03-20T18:31:49;12.30;99.90
2389;DHT22;1205;47.984;7.668;2023-03-20T18:34:15;12.40;99.60